Time;durP1;ratioP1;P1;durP2;ratioP2;P2;SDS_P1;SDS_P2;PMS_P1;PMS_P2;Temp;Humidity;BMP_temperature;BMP_pressure;BME280_temperature;BME280_humidity;BME280_pressure;Samples;Min_cycle;Max_cycle;Signal;HPM_P1;HPM_P2
2021/12/05 00:24:15;;;;;;;30.13;17.83;;;;;;;0.40;100.00;97998.63;5050132;28;20036;-79
2021/12/05 00:27:03;;;;;;;32.13;18.58;;;;;;;0.27;100.00;97983.72;5049727;28;20126;-79
2021/12/05 00:29:37;;;;;;;33.88;20.85;;;;;;;0.33;100.00;97993.75;5050007;28;20080;-80
2021/12/05 00:48:51;;;;;;;30.67;20.02;;;;;;;0.62;99.60;98010.75;5029777;28;20152;-79
2021/12/05 01:17:03;;;;;;;21.85;15.02;;;;;;;0.92;97.25;98011.44;5035885;28;20048;-79
2021/12/05 01:19:31;;;;;;;25.58;16.05;;;;;;;0.88;97.03;98017.56;5036093;28;20033;-79
2021/12/05 01:22:03;;;;;;;21.10;14.23;;;;;;;0.87;96.87;98016.72;5035880;28;20036;-79
2021/12/05 01:35:10;;;;;;;29.40;15.68;;;;;;;0.92;96.80;98002.03;5035639;28;20037;-79
2021/12/05 01:37:59;;;;;;;27.63;16.08;;;;;;;0.93;97.06;98008.00;5035824;28;20041;-79
2021/12/05 01:57:07;;;;;;;27.20;15.68;;;;;;;0.86;97.27;98002.25;5036079;28;20036;-79
2021/12/05 02:41:50;;;;;;;26.25;16.90;;;;;;;0.62;100.00;98014.13;4992466;28;20034;-78
2021/12/05 02:44:21;;;;;;;25.58;17.55;;;;;;;0.68;100.00;98024.19;4992738;28;20516;-78
2021/12/05 02:46:52;;;;;;;33.35;19.88;;;;;;;0.60;100.00;98005.69;4992452;28;20089;-79
2021/12/05 02:49:18;;;;;;;27.90;17.85;;;;;;;0.67;100.00;98025.06;5023119;28;20041;-79
2021/12/05 02:51:55;;;;;;;32.58;19.13;;;;;;;0.74;100.00;98041.91;5054022;28;20041;-79
2021/12/05 02:54:24;;;;;;;30.02;18.70;;;;;;;0.74;100.00;98036.78;5054140;28;20029;-79
2021/12/05 02:56:51;;;;;;;30.23;18.85;;;;;;;0.64;100.00;98020.06;5054075;28;20117;-79
2021/12/05 02:59:41;;;;;;;34.70;20.08;;;;;;;0.71;100.00;98030.94;5054184;28;20463;-79
2021/12/05 03:02:13;;;;;;;27.13;18.85;;;;;;;0.65;100.00;98018.34;5035993;28;20021;-78
2021/12/05 03:04:45;;;;;;;30.77;19.92;;;;;;;0.71;100.00;98028.38;5053904;28;20033;-79
2021/12/05 03:07:12;;;;;;;33.17;22.50;;;;;;;0.64;100.00;98027.75;5036449;28;20025;-79
2021/12/05 03:09:39;;;;;;;36.55;22.35;;;;;;;0.71;100.00;98041.19;5054199;28;20371;-79
2021/12/05 03:12:07;;;;;;;29.98;21.48;;;;;;;0.67;100.00;98037.88;5035923;28;20041;-79
2021/12/05 03:14:33;;;;;;;32.35;20.08;;;;;;;0.66;100.00;98030.25;5053849;28;20120;-79
2021/12/05 03:16:59;;;;;;;29.02;20.65;;;;;;;0.67;100.00;98031.91;5053933;28;20096;-79
2021/12/05 03:19:24;;;;;;;30.73;20.67;;;;;;;0.69;100.00;98038.69;5053738;28;20040;-79
2021/12/05 03:21:52;;;;;;;33.72;21.02;;;;;;;0.71;100.00;98044.56;5053825;28;20029;-79
2021/12/05 03:24:21;;;;;;;29.02;20.92;;;;;;;0.70;100.00;98044.63;5054135;28;20051;-79
2021/12/05 03:26:50;;;;;;;28.67;20.48;;;;;;;0.72;100.00;98046.28;5035509;28;20458;-80
2021/12/05 03:29:17;;;;;;;29.05;22.45;;;;;;;0.69;100.00;98051.50;5053596;28;20123;-80
2021/12/05 03:31:44;;;;;;;30.90;21.58;;;;;;;0.75;100.00;98046.16;5053403;28;20025;-79
2021/12/05 03:34:13;;;;;;;26.58;18.45;;;;;;;0.73;100.00;98050.50;5053370;28;20060;-79
2021/12/05 03:36:41;;;;;;;28.25;19.73;;;;;;;0.72;100.00;98048.00;5053420;28;20032;-80
2021/12/05 03:39:08;;;;;;;29.10;20.45;;;;;;;0.70;100.00;98048.03;5051999;28;20085;-79
2021/12/05 03:41:35;;;;;;;28.55;20.40;;;;;;;0.77;100.00;98051.25;5035409;28;20021;-80
2021/12/05 03:44:01;;;;;;;27.17;18.92;;;;;;;0.71;100.00;98046.31;5035206;28;20029;-79
2021/12/05 03:46:28;;;;;;;26.95;20.23;;;;;;;0.68;100.00;98047.25;5053379;28;20380;-79
2021/12/05 03:48:59;;;;;;;25.48;19.55;;;;;;;0.80;100.00;98066.53;5053087;28;20040;-80
2021/12/05 03:51:27;;;;;;;27.33;19.15;;;;;;;0.73;100.00;98049.66;5053252;28;20029;-80
2021/12/05 03:53:53;;;;;;;26.10;19.05;;;;;;;0.78;100.00;98062.34;5052807;28;20025;-80
2021/12/05 03:56:20;;;;;;;25.17;20.25;;;;;;;0.84;100.00;98069.81;5053400;28;20492;-79
2021/12/05 03:58:46;;;;;;;25.02;19.23;;;;;;;0.83;100.00;98068.97;5052869;28;20028;-80
2021/12/05 04:01:13;;;;;;;21.70;17.27;;;;;;;0.75;100.00;98058.97;5053366;28;20459;-79
2021/12/05 04:03:40;;;;;;;26.75;19.17;;;;;;;0.84;100.00;98077.50;5035153;28;20515;-79
2021/12/05 04:06:08;;;;;;;22.70;17.63;;;;;;;0.79;100.00;98069.13;5052739;28;20075;-79
2021/12/05 04:08:34;;;;;;;20.17;16.17;;;;;;;0.79;100.00;98067.41;5052858;28;20028;-80
2021/12/05 04:11:15;;;;;;;22.20;17.08;;;;;;;0.80;100.00;98063.97;5052285;28;20503;-79
2021/12/05 04:13:42;;;;;;;22.00;16.48;;;;;;;0.62;100.00;98037.19;5052655;28;20029;-80
2021/12/05 04:16:09;;;;;;;20.08;15.82;;;;;;;0.77;100.00;98058.94;5034627;28;20035;-79
2021/12/05 04:18:35;;;;;;;21.13;16.40;;;;;;;0.81;100.00;98068.19;5034968;28;20059;-80
2021/12/05 04:21:01;;;;;;;19.17;15.68;;;;;;;0.70;100.00;98053.16;5052812;28;20105;-80
2021/12/05 04:23:27;;;;;;;17.13;14.45;;;;;;;0.74;100.00;98053.91;5052536;28;20032;-80
2021/12/05 04:25:53;;;;;;;20.73;17.48;;;;;;;0.66;100.00;98040.50;5052173;28;20065;-79
2021/12/05 04:28:21;;;;;;;20.67;16.35;;;;;;;0.72;100.00;98053.97;5034464;28;20028;-79
2021/12/05 04:30:47;;;;;;;22.55;17.83;;;;;;;0.85;100.00;98068.94;5052414;28;20021;-80
2021/12/05 04:33:12;;;;;;;23.63;19.13;;;;;;;0.81;100.00;98064.81;5052166;28;20530;-79
2021/12/05 04:35:38;;;;;;;29.00;23.02;;;;;;;0.81;100.00;98070.75;5034477;28;20392;-80
2021/12/05 04:38:03;;;;;;;27.83;21.48;;;;;;;0.84;100.00;98075.75;5034141;28;20403;-79
2021/12/05 04:40:29;;;;;;;23.60;19.02;;;;;;;0.87;100.00;98080.81;5052248;28;20025;-80
2021/12/05 04:42:54;;;;;;;20.13;15.95;;;;;;;0.76;100.00;98067.53;5034006;28;20149;-79
2021/12/05 04:45:27;;;;;;;17.90;14.30;;;;;;;0.77;100.00;98058.94;5052588;28;20025;-79
2021/12/05 04:47:54;;;;;;;25.60;19.20;;;;;;;0.82;100.00;98069.88;5051807;28;20491;-79
2021/12/05 04:50:20;;;;;;;19.13;15.18;;;;;;;0.84;100.00;98086.00;5051742;28;20028;-80
2021/12/05 04:52:47;;;;;;;26.42;18.30;;;;;;;0.92;100.00;98096.84;5051987;28;20112;-80
2021/12/05 04:55:13;;;;;;;28.58;20.65;;;;;;;0.83;100.00;98081.78;5051686;28;20056;-79
2021/12/05 04:57:40;;;;;;;25.25;18.85;;;;;;;0.89;100.00;98101.28;5052453;28;20036;-80
2021/12/05 05:00:14;;;;;;;26.95;20.80;;;;;;;0.79;100.00;98085.34;5051611;28;20077;-79
2021/12/05 05:02:40;;;;;;;30.25;19.95;;;;;;;0.87;100.00;98111.56;5051725;28;20169;-80
2021/12/05 05:05:06;;;;;;;29.80;20.98;;;;;;;0.85;100.00;98097.13;5033802;28;20109;-80
2021/12/05 05:07:32;;;;;;;28.70;21.00;;;;;;;0.92;100.00;98119.09;5051704;28;20032;-79
2021/12/05 05:10:08;;;;;;;27.55;20.23;;;;;;;0.89;100.00;98116.66;5051330;28;20953;-79
2021/12/05 05:12:33;;;;;;;30.20;23.13;;;;;;;0.86;100.00;98116.75;5051801;28;20476;-79
2021/12/05 05:14:59;;;;;;;29.08;21.52;;;;;;;0.76;100.00;98100.84;5033791;28;20025;-79
2021/12/05 05:17:25;;;;;;;28.42;22.50;;;;;;;0.81;100.00;98113.50;5051843;28;20606;-80
2021/12/05 05:19:56;;;;;;;31.05;20.75;;;;;;;0.74;100.00;98113.69;5034164;28;20130;-80
2021/12/05 05:30:18;;;;;;;29.90;19.95;;;;;;;0.82;100.00;98140.78;5051523;28;20392;-80
2021/12/05 05:43:33;;;;;;;30.92;23.67;;;;;;;0.89;100.00;98137.16;5051702;28;20049;-79
2021/12/05 05:46:17;;;;;;;27.33;20.58;;;;;;;0.87;100.00;98137.19;5033561;28;20033;-79
2021/12/05 05:48:58;;;;;;;26.25;19.73;;;;;;;0.74;100.00;98121.38;5033663;28;20392;-80
2021/12/05 05:51:24;;;;;;;25.70;19.45;;;;;;;0.90;100.00;98146.53;5051501;28;20393;-80
2021/12/05 05:53:50;;;;;;;24.30;19.30;;;;;;;0.85;100.00;98140.72;5051578;28;20033;-80
2021/12/05 05:56:21;;;;;;;25.83;19.48;;;;;;;0.87;100.00;98150.00;5033441;28;20027;-79
2021/12/05 05:58:59;;;;;;;25.38;19.48;;;;;;;0.78;100.00;98141.78;5033507;28;20503;-79
2021/12/05 06:04:04;;;;;;;24.63;19.40;;;;;;;0.87;100.00;98159.41;5054868;28;20384;-79
2021/12/05 06:06:31;;;;;;;24.67;17.83;;;;;;;0.86;100.00;98158.59;5055117;28;20528;-80
2021/12/05 06:08:57;;;;;;;29.50;20.75;;;;;;;0.89;100.00;98165.34;5037091;28;20029;-79
2021/12/05 06:11:22;;;;;;;26.38;19.63;;;;;;;0.76;100.00;98162.34;5054802;28;20098;-79
2021/12/05 06:13:48;;;;;;;24.85;18.67;;;;;;;0.84;100.00;98169.75;5054957;28;20160;-80
2021/12/05 06:16:15;;;;;;;29.48;23.23;;;;;;;0.85;100.00;98176.59;5054717;28;20048;-80
2021/12/05 06:18:41;;;;;;;26.00;19.63;;;;;;;0.79;100.00;98162.22;5054759;28;20029;-79
2021/12/05 06:21:07;;;;;;;23.40;18.35;;;;;;;0.73;100.00;98155.56;5054609;28;20494;-80
2021/12/05 06:23:33;;;;;;;25.15;19.65;;;;;;;0.90;100.00;98177.28;5054895;28;20108;-80
2021/12/05 06:26:00;;;;;;;26.08;19.00;;;;;;;0.85;100.00;98179.97;5054639;28;20108;-79
2021/12/05 06:28:35;;;;;;;25.73;18.98;;;;;;;0.96;100.00;98183.03;5054625;28;20484;-80
2021/12/05 06:39:20;;;;;;;22.05;17.77;;;;;;;0.96;100.00;98200.16;5054604;28;20392;-83
2021/12/05 06:46:58;;;;;;;23.65;18.63;;;;;;;0.90;100.00;98192.66;5034577;28;20036;-83
2021/12/05 06:49:23;;;;;;;23.52;17.17;;;;;;;1.03;100.00;98213.63;5016544;28;20030;-83
2021/12/05 06:51:49;;;;;;;27.73;23.30;;;;;;;1.06;100.00;98210.97;5034228;28;20472;-83
2021/12/05 06:54:14;;;;;;;28.05;23.42;;;;;;;0.98;100.00;98201.78;5034259;28;20121;-83
2021/12/05 06:56:40;;;;;;;25.67;21.38;;;;;;;1.04;100.00;98212.72;5016664;28;20109;-83
2021/12/05 06:59:05;;;;;;;24.85;19.73;;;;;;;1.02;100.00;98207.66;5016268;28;20033;-83
2021/12/05 07:01:31;;;;;;;26.40;21.15;;;;;;;1.03;100.00;98206.75;5034167;28;20031;-83
2021/12/05 07:04:03;;;;;;;22.75;18.35;;;;;;;1.14;100.00;98220.09;5034071;28;20068;-83
2021/12/05 07:06:30;;;;;;;23.55;18.58;;;;;;;1.14;100.00;98217.53;5016198;28;20427;-83
2021/12/05 07:09:05;;;;;;;23.85;19.08;;;;;;;1.20;100.00;98224.19;5034215;28;20049;-83
2021/12/05 07:11:35;;;;;;;25.23;20.33;;;;;;;1.14;100.00;98211.56;5033893;28;20080;-83
2021/12/05 07:40:24;;;;;;;18.77;14.93;;;;;;;1.18;100.00;98224.25;4972223;28;20045;-79
2021/12/05 07:42:52;;;;;;;18.60;14.85;;;;;;;1.24;100.00;98223.19;4971953;28;20174;-79
2021/12/05 07:45:23;;;;;;;17.40;13.75;;;;;;;1.25;100.00;98228.28;4971289;28;20027;-79
2021/12/05 07:47:53;;;;;;;;;;;;;;;1.35;100.00;98245.94;4972433;28;20036;-79
2021/12/05 07:50:25;;;;;;;16.95;14.07;;;;;;;1.28;100.00;98250.44;4971812;28;19921;-79
2021/12/05 07:52:53;;;;;;;20.10;15.45;;;;;;;1.25;100.00;98238.53;4971995;28;20027;-79
2021/12/05 07:55:25;;;;;;;20.58;16.17;;;;;;;1.38;100.00;98253.53;4955548;28;20517;-79
2021/12/05 07:58:22;;;;;;;19.73;16.00;;;;;;;1.29;100.00;98220.50;4955688;28;20035;-79
2021/12/05 08:01:02;;;;;;;25.23;17.80;;;;;;;1.47;100.00;98253.22;4991353;28;20038;-79
2021/12/05 08:14:47;;;;;;;26.23;19.50;;;;;;;1.43;100.00;98272.19;4990968;28;20630;-79
2021/12/05 08:17:18;;;;;;;22.13;17.65;;;;;;;1.46;100.00;98272.91;4990547;28;20109;-79
2021/12/05 08:19:43;;;;;;;22.08;17.45;;;;;;;1.35;100.00;98259.63;4990933;28;20040;-79
2021/12/05 08:22:09;;;;;;;21.60;15.90;;;;;;;1.38;100.00;98274.06;4974381;28;20030;-79
2021/12/05 08:24:36;;;;;;;20.65;15.82;;;;;;;1.42;100.00;98280.78;4990303;28;20621;-79
2021/12/05 08:27:04;;;;;;;23.52;17.42;;;;;;;1.38;100.00;98268.94;4990823;28;20506;-80
2021/12/05 08:29:39;;;;;;;22.00;17.00;;;;;;;1.31;100.00;98263.16;4990744;28;20516;-80
2021/12/05 08:32:19;;;;;;;30.27;24.38;;;;;;;1.44;100.00;98277.28;4974145;28;20026;-79
2021/12/05 08:35:07;;;;;;;37.85;28.20;;;;;;;1.44;100.00;98272.16;4990811;28;20151;-79
2021/12/05 09:21:07;;;;;;;87.13;57.17;;;;;;;1.82;100.00;98282.06;5051708;28;20492;-80
2021/12/05 10:11:48;;;;;;;63.90;40.78;;;;;;;1.91;100.00;98294.59;4970099;28;20174;-84
2021/12/05 10:36:05;;;;;;;52.28;36.35;;;;;;;1.98;100.00;98334.56;5054697;28;20404;-82
2021/12/05 10:38:38;;;;;;;51.40;33.63;;;;;;;1.81;100.00;98327.41;5054439;28;20167;-82
2021/12/05 10:43:41;;;;;;;63.90;40.50;;;;;;;1.68;100.00;98344.94;5054503;28;20032;-84
2021/12/05 10:46:10;;;;;;;69.10;40.53;;;;;;;1.53;100.00;98329.19;5036485;28;20044;-82
2021/12/05 10:48:46;;;;;;;62.92;40.80;;;;;;;1.58;100.00;98340.16;5053541;28;20025;-83
2021/12/05 10:51:28;;;;;;;62.42;41.13;;;;;;;1.59;100.00;98349.53;5036335;28;20071;-83
2021/12/05 10:53:55;;;;;;;59.83;38.53;;;;;;;1.57;100.00;98347.00;5054285;28;20029;-81
2021/12/05 10:56:27;;;;;;;54.67;35.20;;;;;;;1.44;100.00;98335.44;5054021;28;20049;-82
2021/12/05 10:59:09;;;;;;;49.20;32.45;;;;;;;1.48;100.00;98350.69;5054415;28;20041;-80
2021/12/05 11:01:53;;;;;;;103.15;55.70;;;;;;;1.53;100.00;98354.84;5053859;28;20051;-80
2021/12/05 11:04:24;;;;;;;78.82;45.63;;;;;;;1.47;100.00;98355.84;5036031;28;20040;-81
2021/12/05 11:06:54;;;;;;;49.67;34.00;;;;;;;1.43;100.00;98355.16;5054006;28;20024;-79
2021/12/05 11:09:27;;;;;;;45.78;30.20;;;;;;;1.40;100.00;98344.13;5035702;28;20029;-81
2021/12/05 11:12:17;;;;;;;43.30;29.52;;;;;;;1.61;100.00;98366.56;5053759;28;20045;-78
2021/12/05 11:14:46;;;;;;;45.70;32.95;;;;;;;1.60;100.00;98348.63;5036079;28;20025;-80
2021/12/05 11:17:26;;;;;;;60.67;40.50;;;;;;;1.68;100.00;98352.63;5035969;28;20067;-79
2021/12/05 11:20:06;;;;;;;73.13;46.47;;;;;;;1.78;100.00;98363.47;5053819;28;20032;-80
2021/12/05 11:22:40;;;;;;;75.63;46.35;;;;;;;1.80;100.00;98358.28;5020864;28;20040;-81
2021/12/05 11:25:19;;;;;;;135.48;76.32;;;;;;;1.89;100.00;98365.69;5016034;28;20749;-81
2021/12/05 11:28:11;;;;;;;60.90;40.97;;;;;;;1.86;100.00;98353.78;5016050;28;20025;-81
2021/12/05 11:30:40;;;;;;;49.92;33.13;;;;;;;1.96;100.00;98357.72;5033460;28;20032;-79
2021/12/05 11:33:18;;;;;;;51.72;34.92;;;;;;;1.98;100.00;98358.53;5015482;28;20025;-80
2021/12/05 11:36:00;;;;;;;67.38;45.05;;;;;;;1.91;100.00;98354.47;5015886;28;20060;-81
2021/12/05 11:38:30;;;;;;;79.50;52.22;;;;;;;2.02;100.00;98358.41;5015523;28;20030;-81
2021/12/05 11:41:07;;;;;;;100.32;59.78;;;;;;;2.00;100.00;98354.16;5033346;28;20037;-82
2021/12/05 11:43:37;;;;;;;60.33;39.17;;;;;;;2.05;100.00;98366.84;5015154;28;20099;-82
2021/12/05 11:46:16;;;;;;;69.90;42.08;;;;;;;1.92;100.00;98342.47;5015730;28;20024;-83
2021/12/05 11:48:46;;;;;;;106.45;62.88;;;;;;;2.02;100.00;98368.69;5033388;28;20037;-81
2021/12/05 11:51:30;;;;;;;128.05;72.03;;;;;;;2.00;100.00;98372.16;5033272;28;20376;-81
2021/12/05 11:54:10;;;;;;;93.55;56.45;;;;;;;2.04;100.00;98385.72;5032928;28;20026;-81
2021/12/05 11:56:35;;;;;;;78.20;48.97;;;;;;;2.04;100.00;98388.31;5032849;28;20028;-87
2021/12/05 11:59:19;;;;;;;68.50;43.53;;;;;;;2.05;100.00;98389.97;5014847;28;20042;-83
2021/12/05 12:01:51;;;;;;;58.72;37.70;;;;;;;2.06;100.00;98399.34;5015290;28;20037;-84
2021/12/05 12:04:20;;;;;;;79.68;51.42;;;;;;;1.98;100.00;98391.91;5014840;28;20026;-83
2021/12/05 12:07:04;;;;;;;84.72;56.22;;;;;;;1.82;100.00;98367.63;5015240;28;20036;-83
2021/12/05 12:09:29;;;;;;;105.10;61.63;;;;;;;1.95;100.00;98386.03;5032792;28;20108;-84
2021/12/05 12:11:55;;;;;;;169.18;75.85;;;;;;;1.99;100.00;98383.31;5048968;28;20131;-82
2021/12/05 12:14:21;;;;;;;126.80;55.90;;;;;;;2.01;100.00;98385.81;5052584;28;20033;-82
2021/12/05 12:16:48;;;;;;;140.57;73.97;;;;;;;2.01;100.00;98385.81;5052623;28;20025;-83
2021/12/05 12:19:14;;;;;;;131.38;71.88;;;;;;;1.90;100.00;98377.66;5051282;28;20457;-83
2021/12/05 12:21:42;;;;;;;131.65;80.80;;;;;;;1.96;100.00;98392.84;5060266;28;20082;-83
2021/12/05 12:24:10;;;;;;;86.45;53.40;;;;;;;1.97;100.00;98392.78;5072549;28;20398;-83
2021/12/05 12:26:37;;;;;;;86.35;50.22;;;;;;;1.97;100.00;98384.25;5070920;28;20047;-83
2021/12/05 12:29:04;;;;;;;95.70;52.28;;;;;;;1.98;100.00;98381.66;5072396;28;20111;-83
2021/12/05 12:31:35;;;;;;;86.38;49.38;;;;;;;2.00;100.00;98391.84;5070650;28;20086;-83
2021/12/05 12:34:14;;;;;;;94.00;51.20;;;;;;;1.98;100.00;98383.34;5070817;28;20024;-83
2021/12/05 12:36:45;;;;;;;122.20;58.47;;;;;;;2.05;100.00;98389.97;5072650;28;20300;-83
2021/12/05 12:39:16;;;;;;;105.18;59.72;;;;;;;2.19;100.00;98403.22;5071189;28;20031;-82
2021/12/05 12:42:03;;;;;;;101.28;61.97;;;;;;;2.13;100.00;98387.16;5070708;28;20032;-83
2021/12/05 12:44:29;;;;;;;105.60;62.08;;;;;;;2.15;100.00;98387.94;5069695;28;20059;-82
2021/12/05 12:46:59;;;;;;;139.73;71.30;;;;;;;2.25;100.00;98409.88;5070507;28;20081;-82
2021/12/05 12:49:34;;;;;;;129.10;65.70;;;;;;;2.23;100.00;98406.50;5070348;28;20027;-83
2021/12/05 12:52:05;;;;;;;134.82;70.03;;;;;;;2.28;100.00;98419.22;5070856;28;20448;-83
2021/12/05 12:54:50;;;;;;;147.95;73.78;;;;;;;2.32;100.00;98423.34;5070652;28;20472;-82
2021/12/05 12:57:28;;;;;;;201.48;92.15;;;;;;;2.32;100.00;98419.06;5071941;28;20025;-83
2021/12/05 12:59:56;;;;;;;177.82;81.80;;;;;;;2.22;100.00;98407.41;5070520;28;20078;-84
2021/12/05 13:02:37;;;;;;;214.43;97.97;;;;;;;2.23;100.00;98421.91;5071613;28;20423;-81
2021/12/05 13:05:35;;;;;;;256.58;109.65;;;;;;;2.22;100.00;98421.09;5070798;28;20115;-81
2021/12/05 13:11:14;;;;;;;314.83;134.30;;;;;;;2.20;100.00;98419.47;5053381;28;20052;-85
2021/12/05 13:13:45;;;;;;;307.45;129.43;;;;;;;2.19;100.00;98430.63;5038999;28;20017;-84
2021/12/05 13:16:16;;;;;;;227.18;99.50;;;;;;;2.20;100.00;98435.72;5021081;28;20033;-84
2021/12/05 13:18:45;;;;;;;208.50;95.05;;;;;;;2.04;100.00;98413.97;5040394;28;20032;-84
2021/12/05 13:21:35;;;;;;;248.18;113.35;;;;;;;2.16;100.00;98436.72;4987036;28;20050;-86
2021/12/05 13:24:42;;;;;;;240.00;111.28;;;;;;;2.13;100.00;98430.81;4986847;28;20752;-81
2021/12/05 13:27:26;;;;;;;220.25;108.82;;;;;;;2.14;100.00;98430.75;4949455;29;20211;-81
2021/12/05 13:29:56;;;;;;;252.07;130.48;;;;;;;2.16;100.00;98433.31;4951141;29;20051;-81
2021/12/05 13:32:32;;;;;;;258.42;131.60;;;;;;;2.17;100.00;98443.53;4931617;29;20082;-81
2021/12/05 13:35:07;;;;;;;261.02;136.57;;;;;;;2.04;100.00;98424.25;4912966;29;20037;-81
2021/12/05 13:37:49;;;;;;;252.30;134.30;;;;;;;2.10;100.00;98442.03;4913035;29;20044;-80
2021/12/05 13:40:17;;;;;;;213.18;112.60;;;;;;;2.15;100.00;98447.00;4926289;29;20083;-81
2021/12/05 13:42:48;;;;;;;193.38;106.05;;;;;;;2.04;100.00;98424.25;4916097;29;20062;-81
2021/12/05 13:45:28;;;;;;;163.68;89.35;;;;;;;2.08;100.00;98437.84;4931591;29;20078;-80
2021/12/05 13:47:58;;;;;;;113.95;65.25;;;;;;;2.14;100.00;98447.91;4916024;29;20040;-81
2021/12/05 13:50:28;;;;;;;90.88;51.28;;;;;;;2.11;100.00;98441.16;4931813;29;20036;-84
2021/12/05 13:52:56;;;;;;;79.32;42.83;;;;;;;2.12;100.00;98455.69;4947316;29;20042;-87
2021/12/05 13:56:04;;;;;;;89.50;48.85;;;;;;;2.15;100.00;98447.88;4950733;29;20376;-87
2021/12/05 13:58:32;;;;;;;115.68;59.60;;;;;;;2.09;100.00;98445.50;4950964;29;20023;-86
2021/12/05 14:01:08;;;;;;;125.88;62.72;;;;;;;2.07;100.00;98437.00;4950904;29;20050;-86
2021/12/05 14:03:55;;;;;;;124.38;63.03;;;;;;;2.12;100.00;98442.00;4951017;29;20043;-87
2021/12/05 14:06:47;;;;;;;107.13;58.35;;;;;;;2.12;100.00;98444.56;4950950;29;20070;-87
2021/12/05 14:09:31;;;;;;;111.45;60.78;;;;;;;2.00;100.00;98432.94;4917363;29;20036;-86
2021/12/05 14:12:15;;;;;;;142.35;74.85;;;;;;;2.08;100.00;98445.53;4931813;29;20055;-87
2021/12/05 14:14:48;;;;;;;141.90;75.28;;;;;;;2.07;100.00;98449.00;4931587;29;20051;-84
2021/12/05 14:17:19;;;;;;;109.45;57.35;;;;;;;2.05;100.00;98456.75;4946770;28;20664;-85
2021/12/05 14:19:48;;;;;;;93.13;49.80;;;;;;;1.94;100.00;98439.13;4967382;28;20643;-85
2021/12/05 14:22:16;;;;;;;77.53;43.08;;;;;;;1.99;100.00;98452.66;4969964;28;20031;-86
2021/12/05 14:24:49;;;;;;;75.57;40.88;;;;;;;2.02;100.00;98464.53;4956979;28;20130;-85
2021/12/05 14:27:18;;;;;;;77.57;41.80;;;;;;;1.99;100.00;98460.34;4990144;28;20042;-86
2021/12/05 14:29:46;;;;;;;70.68;40.80;;;;;;;2.07;100.00;98472.97;4979846;28;20034;-85
2021/12/05 14:32:31;;;;;;;86.03;45.65;;;;;;;2.09;100.00;98472.91;4996323;28;20066;-85
2021/12/05 14:35:16;;;;;;;82.20;43.72;;;;;;;1.95;100.00;98456.19;4996111;28;20480;-85
2021/12/05 14:37:43;;;;;;;72.50;39.13;;;;;;;1.98;100.00;98461.25;4993480;28;20572;-84
2021/12/05 14:40:18;;;;;;;66.22;36.65;;;;;;;1.97;100.00;98454.41;5004377;28;20036;-86
2021/12/05 14:42:46;;;;;;;66.10;35.70;;;;;;;2.05;100.00;98482.44;5054150;28;20021;-86
2021/12/05 14:45:21;;;;;;;77.15;41.53;;;;;;;2.02;100.00;98472.25;5036653;28;20032;-86
2021/12/05 14:47:49;;;;;;;81.35;47.03;;;;;;;2.04;100.00;98485.88;5053242;28;20028;-86
2021/12/05 14:50:25;;;;;;;175.45;91.65;;;;;;;2.05;100.00;98485.00;5036262;28;20029;-83
2021/12/05 14:52:54;;;;;;;161.45;82.35;;;;;;;2.02;100.00;98485.09;5037615;28;20473;-83
2021/12/05 14:55:23;;;;;;;186.25;96.22;;;;;;;1.94;100.00;98469.94;5052529;28;20626;-85
2021/12/05 14:57:52;;;;;;;380.77;215.30;;;;;;;2.08;100.00;98499.47;5036493;28;20052;-84
2021/12/05 15:00:40;;;;;;;289.33;159.77;;;;;;;2.09;100.00;98503.72;5036000;28;20025;-83
2021/12/05 15:03:13;;;;;;;141.73;78.28;;;;;;;2.09;100.00;98512.25;5011561;28;20070;-83
2021/12/05 15:05:43;;;;;;;118.57;66.78;;;;;;;2.02;100.00;98505.63;5011829;28;20117;-83
2021/12/05 15:08:13;;;;;;;110.65;59.00;;;;;;;1.96;100.00;98495.56;5011760;28;20029;-83
2021/12/05 15:10:43;;;;;;;82.75;46.92;;;;;;;1.99;100.00;98508.31;5003241;28;20045;-82
2021/12/05 15:13:10;;;;;;;62.30;38.55;;;;;;;1.96;100.00;98506.66;5031652;28;20048;-83
2021/12/05 15:15:37;;;;;;;81.43;49.03;;;;;;;2.05;100.00;98522.69;5031295;28;20088;-83
2021/12/05 15:18:03;;;;;;;69.30;44.70;;;;;;;2.00;100.00;98513.38;5031292;28;20043;-82
2021/12/05 15:20:32;;;;;;;67.95;41.38;;;;;;;1.99;100.00;98500.59;5014486;28;20125;-82
2021/12/05 15:23:16;;;;;;;56.38;35.45;;;;;;;2.06;100.00;98511.50;5014947;28;20029;-84
2021/12/05 15:25:43;;;;;;;50.90;32.78;;;;;;;2.08;100.00;98523.44;5031409;28;20123;-83
2021/12/05 15:28:12;;;;;;;65.25;38.45;;;;;;;2.02;100.00;98509.94;5031275;28;20034;-84
2021/12/05 15:30:41;;;;;;;60.72;35.38;;;;;;;2.02;100.00;98515.06;5014349;28;20022;-83
2021/12/05 15:33:13;;;;;;;53.30;33.00;;;;;;;2.02;100.00;98515.91;5014388;28;20044;-83
2021/12/05 15:35:40;;;;;;;46.65;30.65;;;;;;;2.01;100.00;98516.78;5030710;28;20033;-84
2021/12/05 15:38:11;;;;;;;54.50;32.30;;;;;;;1.89;100.00;98496.63;5014482;28;20125;-83
2021/12/05 15:40:40;;;;;;;56.83;31.98;;;;;;;1.88;100.00;98497.50;5014131;28;20038;-83
2021/12/05 15:43:09;;;;;;;62.28;33.35;;;;;;;2.02;100.00;98512.50;5030925;28;20430;-83
2021/12/05 15:45:36;;;;;;;58.58;37.20;;;;;;;1.94;100.00;98508.44;5030771;28;20497;-83
2021/12/05 15:48:02;;;;;;;57.55;37.20;;;;;;;1.94;100.00;98511.03;5068179;28;20040;-81
2021/12/05 15:50:31;;;;;;;53.92;33.55;;;;;;;1.94;100.00;98516.16;5072918;28;20426;-80
2021/12/05 15:53:10;;;;;;;54.60;32.83;;;;;;;2.06;100.00;98542.34;5072776;28;20525;-81
2021/12/05 15:55:35;;;;;;;50.60;31.75;;;;;;;2.07;100.00;98544.03;5072433;28;20064;-83
2021/12/05 15:58:08;;;;;;;47.83;29.65;;;;;;;2.07;100.00;98549.19;5072712;28;20083;-82
2021/12/05 16:00:41;;;;;;;47.15;29.17;;;;;;;1.96;100.00;98529.78;5071179;28;20055;-83
2021/12/05 16:03:12;;;;;;;52.15;31.20;;;;;;;1.98;100.00;98533.16;5072665;28;20020;-82
2021/12/05 16:05:41;;;;;;;79.40;42.38;;;;;;;1.91;100.00;98531.66;5072345;28;20111;-83
2021/12/05 16:08:14;;;;;;;155.05;69.05;;;;;;;1.98;100.00;98547.69;5071152;28;20035;-82
2021/12/05 16:10:46;;;;;;;102.70;49.88;;;;;;;1.96;100.00;98552.88;5071004;28;20056;-83
2021/12/05 16:13:16;;;;;;;94.80;44.45;;;;;;;1.92;100.00;98543.59;5072573;28;20488;-81
2021/12/05 16:15:44;;;;;;;102.82;48.90;;;;;;;1.89;100.00;98540.25;5072410;28;20032;-79
2021/12/05 16:18:10;;;;;;;194.20;74.90;;;;;;;1.88;100.00;98542.00;5067953;28;20031;-79
2021/12/05 16:20:46;;;;;;;114.57;54.53;;;;;;;1.93;100.00;98560.66;5061661;28;20020;-82
2021/12/05 16:23:22;;;;;;;88.35;46.58;;;;;;;1.83;100.00;98545.59;5057004;28;20504;-82
2021/12/05 16:26:02;;;;;;;61.75;37.03;;;;;;;1.98;100.00;98578.50;5052140;28;20025;-82
2021/12/05 16:28:35;;;;;;;54.80;34.73;;;;;;;1.88;100.00;98556.56;5072017;28;20021;-81
2021/12/05 16:31:26;;;;;;;56.47;34.88;;;;;;;1.91;100.00;98553.91;5070973;28;20047;-80
2021/12/05 16:34:17;;;;;;;57.35;36.80;;;;;;;1.98;100.00;98568.25;4974475;28;20042;-80
2021/12/05 16:36:50;;;;;;;;;;;;;;;1.95;100.00;98558.91;4971901;28;20027;-80
2021/12/05 16:39:28;;;;;;;69.47;44.10;;;;;;;1.93;100.00;98567.53;4970751;28;19914;-79
2021/12/05 16:42:02;;;;;;;72.50;46.65;;;;;;;1.80;100.00;98555.94;4971195;28;20031;-80
2021/12/05 16:44:34;;;;;;;71.47;48.13;;;;;;;1.83;100.00;98566.97;4970699;28;20039;-79
2021/12/05 16:47:09;;;;;;;58.28;38.08;;;;;;;1.72;100.00;98548.44;4938397;28;20494;-78
2021/12/05 16:49:41;;;;;;;50.53;35.03;;;;;;;1.71;100.00;98559.63;4938542;28;20030;-78
2021/12/05 16:52:14;;;;;;;52.42;34.03;;;;;;;1.68;100.00;98563.09;4976778;28;20064;-78
2021/12/05 16:55:16;;;;;;;59.03;37.42;;;;;;;1.78;100.00;98586.81;4990119;28;20694;-79
2021/12/05 16:57:51;;;;;;;57.20;38.65;;;;;;;1.70;100.00;98573.34;4951470;29;20069;-79
2021/12/05 17:00:21;;;;;;;62.70;38.67;;;;;;;1.65;100.00;98562.38;4932041;29;20039;-79
2021/12/05 17:02:52;;;;;;;56.03;35.25;;;;;;;1.72;100.00;98592.09;4932281;29;20039;-79
2021/12/05 17:05:32;;;;;;;54.28;35.25;;;;;;;1.70;100.00;98592.16;4931994;29;20043;-79